Main page
METAR-TAF:

Airports :

Dortmund, Germany

Dortmund Airport

latitude: 51-31N, longitude: 007-37E, elevation: 127 m

Current weather observation

The report was made 28 minutes ago, at 06:20 UTC
Wind 11 kt from the Southwest
Temperature 15°C
Humidity 55%
Pressure 1024 hPa
Visibility 10 km or more
Broken clouds at a height of 4000 ft

METAR: EDLW 280620Z 22011KT 9999 BKN040 15/06 Q1024

Time: 08:48 (06:48 UTC)

Forecast

The report was made 1 hour and 48 minutes ago, at 05:00 UTC
Forecast valid from 28 at 06 UTC to 29 at 06 UTC
Wind 15 kt from the Southwest
Visibility 10 km or more
Scattered clouds at a height of 3000 ft
Temporary
from 28 at 08 UTC to 28 at 16 UTC
Wind 15 kt from the West/Southwest with gusts up to 25 kt
Becoming
from 28 at 16 UTC to 28 at 18 UTC
Wind 8 kt from the South/Southwest

TAF: EDLW 280500Z 2806/2906 23015KT 9999 SCT030 TEMPO 2808/2816 24015G25KT BECMG 2816/2818 21008KT

METAR-TAF

Weather observations and forecasts of more than 4000 airports (METAR and TAF reports).

The available stations are represented by yellow and red dots on the map.

Hover mouse over dot to see the name of the station.

Then click to see weather observations and forecasts.

To change the map : click on the green buttons with a black cross to zoom in, on the green button with a dash to zoom out, or on the green arrows for adjacent maps.


METAR-TAF: